Time;durP1;ratioP1;P1;durP2;ratioP2;P2;SDS_P1;SDS_P2;PMS_P1;PMS_P2;Temp;Humidity;BMP_temperature;BMP_pressure;BME280_temperature;BME280_humidity;BME280_pressure;Samples;Min_cycle;Max_cycle;Signal;HPM_P1;HPM_P2
2023/11/27 08:41:19;;;;;;;1.17;0.83;;;5.40;99.90;;;;;;2953395;23;20573;-76
2023/11/27 08:43:47;;;;;;;3.90;1.00;;;5.40;99.90;;;;;;4952265;28;20215;-74
2023/11/27 08:46:14;;;;;;;2.77;1.67;;;5.40;99.90;;;;;;4958333;28;20207;-74
2023/11/27 08:48:41;;;;;;;3.73;1.43;;;5.40;99.90;;;;;;4957901;28;20231;-75
2023/11/27 08:51:09;;;;;;;1.80;1.00;;;5.50;99.90;;;;;;4958119;29;20216;-74
2023/11/27 08:53:36;;;;;;;2.10;1.33;;;5.60;99.90;;;;;;4946897;28;20619;-74
2023/11/27 08:56:03;;;;;;;0.80;0.60;;;5.60;99.90;;;;;;4938757;29;20212;-74
2023/11/27 08:58:34;;;;;;;2.13;0.90;;;5.60;99.90;;;;;;4938298;29;20595;-76
2023/11/27 09:01:04;;;;;;;1.17;0.90;;;5.50;99.90;;;;;;4941363;29;20262;-75
2023/11/27 09:03:31;;;;;;;1.57;0.97;;;5.50;99.90;;;;;;4947902;28;20260;-76
2023/11/27 09:05:58;;;;;;;0.97;0.60;;;5.50;99.90;;;;;;4938363;29;20204;-75
2023/11/27 09:08:25;;;;;;;0.93;0.80;;;5.50;99.90;;;;;;4938402;29;20276;-74
2023/11/27 09:10:52;;;;;;;1.37;0.83;;;5.50;99.90;;;;;;4938248;29;20205;-75
2023/11/27 09:13:19;;;;;;;0.87;0.60;;;5.60;99.90;;;;;;4938412;29;20208;-74
2023/11/27 09:15:47;;;;;;;1.17;0.70;;;5.60;99.90;;;;;;4938622;29;20245;-77
2023/11/27 09:18:14;;;;;;;0.80;0.60;;;5.60;99.90;;;;;;4938124;29;20225;-75
2023/11/27 09:20:41;;;;;;;1.00;0.53;;;5.60;99.90;;;;;;4937581;29;20778;-75
2023/11/27 09:23:09;;;;;;;1.37;0.87;;;5.60;99.90;;;;;;4925952;29;20291;-75
2023/11/27 09:25:36;;;;;;;3.50;0.50;;;5.60;99.90;;;;;;4938125;29;20268;-76
2023/11/27 09:28:03;;;;;;;0.93;0.50;;;5.50;99.90;;;;;;4937751;29;20223;-76
2023/11/27 09:30:30;;;;;;;2.43;0.73;;;5.60;99.90;;;;;;4938063;29;20209;-76
2023/11/27 09:32:58;;;;;;;0.80;0.57;;;5.60;99.90;;;;;;4937764;29;20675;-76
2023/11/27 09:35:25;;;;;;;1.03;0.70;;;5.60;99.90;;;;;;4938515;29;20212;-77
2023/11/27 09:37:52;;;;;;;1.13;0.60;;;5.60;99.90;;;;;;4927032;29;20212;-77
2023/11/27 09:40:21;;;;;;;1.10;0.60;;;5.60;99.90;;;;;;4937295;29;20264;-76
2023/11/27 09:42:48;;;;;;;0.70;0.50;;;5.70;99.90;;;;;;4926274;29;20252;-76
2023/11/27 09:45:18;;;;;;;0.67;0.43;;;5.70;99.90;;;;;;4937833;29;20241;-75
2023/11/27 09:47:48;;;;;;;1.47;0.60;;;5.60;99.90;;;;;;4937962;29;20256;-77
2023/11/27 09:50:19;;;;;;;1.03;0.40;;;5.70;99.90;;;;;;4938090;29;20664;-75
2023/11/27 09:52:54;;;;;;;3.67;1.43;;;5.80;99.90;;;;;;4937964;29;20220;-75
2023/11/27 09:55:22;;;;;;;2.93;0.50;;;5.80;99.90;;;;;;4937720;29;20259;-76
2023/11/27 09:57:49;;;;;;;1.73;0.73;;;5.80;99.90;;;;;;4937981;29;20575;-75
2023/11/27 10:00:19;;;;;;;0.93;0.50;;;5.80;99.90;;;;;;4937653;29;20295;-76
2023/11/27 10:02:51;;;;;;;0.80;0.50;;;5.70;99.90;;;;;;4937977;29;20267;-75
2023/11/27 10:05:21;;;;;;;0.63;0.40;;;5.80;99.90;;;;;;4938046;29;20241;-76
2023/11/27 10:07:50;;;;;;;1.13;0.63;;;5.70;99.90;;;;;;4937943;29;20256;-76
2023/11/27 10:10:24;;;;;;;0.40;0.37;;;5.70;99.90;;;;;;4937418;29;20300;-76
2023/11/27 10:12:51;;;;;;;0.57;0.40;;;5.70;99.90;;;;;;4937293;29;20248;-76
2023/11/27 10:15:20;;;;;;;0.67;0.40;;;5.80;99.90;;;;;;4937545;29;20217;-75
2023/11/27 10:17:47;;;;;;;0.63;0.53;;;5.80;99.90;;;;;;4937873;29;20219;-76
2023/11/27 10:20:15;;;;;;;1.27;0.40;;;5.80;99.90;;;;;;4937433;29;20283;-75
2023/11/27 10:22:43;;;;;;;0.80;0.37;;;5.80;99.90;;;;;;4937663;29;20213;-75
2023/11/27 10:25:13;;;;;;;0.77;0.57;;;5.80;99.90;;;;;;4937515;29;20236;-75
2023/11/27 10:27:42;;;;;;;0.60;0.50;;;5.80;99.90;;;;;;4937341;29;20217;-74
2023/11/27 10:30:20;;;;;;;0.30;0.23;;;5.80;99.90;;;;;;4937552;29;20237;-76
2023/11/27 10:32:47;;;;;;;0.63;0.40;;;5.90;99.90;;;;;;4937594;29;20731;-76
2023/11/27 10:35:14;;;;;;;2.33;0.43;;;5.80;99.90;;;;;;4937777;29;20212;-76
2023/11/27 10:37:44;;;;;;;0.90;0.60;;;5.80;99.90;;;;;;4937385;29;20295;-77
2023/11/27 10:40:14;;;;;;;0.50;0.40;;;5.90;99.90;;;;;;4940658;29;20279;-77
2023/11/27 10:42:47;;;;;;;0.40;0.33;;;5.90;99.90;;;;;;4937671;29;20623;-76
2023/11/27 10:45:18;;;;;;;0.93;0.53;;;5.90;99.90;;;;;;4937024;29;20219;-75
2023/11/27 10:47:46;;;;;;;0.73;0.50;;;5.90;99.90;;;;;;4936551;29;20209;-75
2023/11/27 10:50:16;;;;;;;1.67;0.73;;;5.90;99.90;;;;;;4936885;29;20718;-77
2023/11/27 10:52:47;;;;;;;0.60;0.43;;;6.00;99.90;;;;;;4936798;29;20209;-76
2023/11/27 10:55:16;;;;;;;1.03;0.50;;;6.00;99.90;;;;;;4937070;29;20212;-76
2023/11/27 10:57:44;;;;;;;0.97;0.50;;;6.00;99.90;;;;;;4936808;29;20213;-75
2023/11/27 11:00:18;;;;;;;1.33;0.60;;;6.00;99.90;;;;;;4936487;29;20691;-77
2023/11/27 11:02:50;;;;;;;0.90;0.57;;;6.00;99.90;;;;;;4936666;29;20279;-75
2023/11/27 11:05:26;;;;;;;0.87;0.67;;;6.00;99.90;;;;;;4935928;29;20240;-76
2023/11/27 11:07:56;;;;;;;0.70;0.50;;;5.90;99.90;;;;;;4936683;29;20209;-76
2023/11/27 11:10:26;;;;;;;0.40;0.40;;;5.90;99.90;;;;;;4936565;29;20260;-76
2023/11/27 11:12:56;;;;;;;0.90;0.40;;;5.90;99.90;;;;;;4936422;29;20211;-76
2023/11/27 11:15:34;;;;;;;1.27;0.60;;;5.90;99.90;;;;;;4936051;29;20205;-76
2023/11/27 11:18:10;;;;;;;0.70;0.50;;;6.00;99.90;;;;;;4936280;29;20706;-76
2023/11/27 11:20:49;;;;;;;0.80;0.50;;;6.00;99.90;;;;;;4936097;29;20232;-74
2023/11/27 11:23:28;;;;;;;0.57;0.33;;;6.00;99.90;;;;;;4935924;29;20671;-76
2023/11/27 11:26:28;;;;;;;0.57;0.50;;;6.00;99.90;;;;;;4936627;29;20524;-75
2023/11/27 11:29:11;;;;;;;0.97;0.70;;;6.00;99.90;;;;;;4936205;29;20233;-76
2023/11/27 11:31:44;;;;;;;0.40;0.23;;;6.10;99.90;;;;;;4936210;29;20218;-76
2023/11/27 11:34:20;;;;;;;0.60;0.60;;;6.10;99.90;;;;;;4936116;29;20224;-76
2023/11/27 11:36:54;;;;;;;1.33;1.03;;;6.10;99.90;;;;;;4936189;29;20291;-76
2023/11/27 11:39:25;;;;;;;1.40;0.93;;;6.10;99.90;;;;;;4935733;29;20627;-76
2023/11/27 11:42:01;;;;;;;0.70;0.43;;;6.10;99.90;;;;;;4935703;29;20655;-75
2023/11/27 11:44:29;;;;;;;0.77;0.50;;;6.00;99.90;;;;;;4935735;29;20236;-77
2023/11/27 11:46:56;;;;;;;5.53;1.13;;;6.10;99.90;;;;;;4936015;29;20216;-76
2023/11/27 11:49:28;;;;;;;0.70;0.60;;;6.20;99.90;;;;;;4935812;29;20229;-76
2023/11/27 11:52:07;;;;;;;0.70;0.40;;;6.20;99.90;;;;;;4935808;29;20212;-76
2023/11/27 11:54:39;;;;;;;1.17;0.40;;;6.20;99.90;;;;;;4935944;29;20244;-76
2023/11/27 11:57:13;;;;;;;0.60;0.57;;;6.30;99.90;;;;;;4935457;29;20549;-75
2023/11/27 11:59:40;;;;;;;0.93;0.60;;;6.30;99.90;;;;;;4935742;29;20236;-75
2023/11/27 12:02:12;;;;;;;0.30;0.30;;;6.30;99.90;;;;;;4935670;29;20236;-76
2023/11/27 12:04:40;;;;;;;0.87;0.40;;;6.30;99.90;;;;;;4935795;29;20232;-75
2023/11/27 12:07:08;;;;;;;0.50;0.30;;;6.30;99.90;;;;;;4935598;29;20213;-75
2023/11/27 12:09:41;;;;;;;0.93;0.63;;;6.20;99.90;;;;;;4935571;29;20260;-76
2023/11/27 12:12:10;;;;;;;0.40;0.30;;;6.20;99.90;;;;;;4936067;29;20220;-76
2023/11/27 12:14:38;;;;;;;0.50;0.40;;;6.20;99.90;;;;;;4935891;29;20209;-76
2023/11/27 12:17:07;;;;;;;1.17;0.57;;;6.40;99.90;;;;;;4937166;29;20213;-76
2023/11/27 12:19:34;;;;;;;0.60;0.57;;;6.40;99.90;;;;;;4939295;29;20228;-75
2023/11/27 12:22:04;;;;;;;0.63;0.50;;;6.40;99.90;;;;;;4939242;29;20644;-76
2023/11/27 12:24:31;;;;;;;0.73;0.60;;;6.40;99.90;;;;;;4939677;29;20234;-76
2023/11/27 12:27:04;;;;;;;1.47;1.00;;;6.50;99.90;;;;;;4939358;29;20211;-76
2023/11/27 12:29:31;;;;;;;0.80;0.50;;;6.50;99.90;;;;;;4939445;29;20336;-75
2023/11/27 12:31:58;;;;;;;0.93;0.63;;;6.40;99.90;;;;;;4939589;29;20209;-76
2023/11/27 12:34:25;;;;;;;1.13;0.50;;;6.40;99.90;;;;;;4939284;29;20216;-77
2023/11/27 12:36:53;;;;;;;0.57;0.40;;;6.40;99.90;;;;;;4939543;29;20284;-75
2023/11/27 12:39:25;;;;;;;0.97;0.50;;;6.50;99.90;;;;;;4939128;29;20719;-75
2023/11/27 12:42:00;;;;;;;0.77;0.40;;;6.50;99.90;;;;;;4939146;29;20259;-76
2023/11/27 12:44:31;;;;;;;1.53;0.70;;;6.40;99.90;;;;;;4938945;29;20314;-75
2023/11/27 12:47:02;;;;;;;1.47;0.60;;;6.40;99.90;;;;;;4938969;29;20213;-75
2023/11/27 12:49:33;;;;;;;0.90;0.60;;;6.50;99.90;;;;;;4939346;28;20284;-76
2023/11/27 12:52:07;;;;;;;0.70;0.50;;;6.50;99.90;;;;;;4939127;29;20216;-75
2023/11/27 12:54:36;;;;;;;1.83;0.60;;;6.50;99.90;;;;;;4938942;29;20213;-75
2023/11/27 12:57:05;;;;;;;5.00;1.67;;;6.60;99.90;;;;;;4938808;29;20208;-76
2023/11/27 12:59:34;;;;;;;1.80;0.93;;;6.60;99.90;;;;;;4938778;29;20240;-75
2023/11/27 13:02:04;;;;;;;0.77;0.67;;;6.60;99.90;;;;;;4938761;29;20237;-75
2023/11/27 13:04:36;;;;;;;1.43;0.50;;;6.50;99.90;;;;;;4938797;29;20304;-75
2023/11/27 13:07:09;;;;;;;0.90;0.60;;;6.50;99.90;;;;;;4939154;29;20208;-75
2023/11/27 13:09:37;;;;;;;1.00;0.80;;;6.50;99.90;;;;;;4938454;29;20242;-74
2023/11/27 13:12:14;;;;;;;1.27;0.40;;;6.50;99.90;;;;;;4938691;29;20215;-74
2023/11/27 13:14:43;;;;;;;1.77;1.07;;;6.50;99.90;;;;;;4938586;29;20659;-76
2023/11/27 13:17:18;;;;;;;2.30;0.70;;;6.50;99.90;;;;;;4938438;29;20209;-76
2023/11/27 13:19:49;;;;;;;1.43;0.40;;;6.50;99.90;;;;;;4938508;29;20232;-76
2023/11/27 13:22:16;;;;;;;0.73;0.43;;;6.50;99.90;;;;;;4938279;29;20279;-76
2023/11/27 13:24:43;;;;;;;0.50;0.40;;;6.60;99.90;;;;;;4938437;29;20553;-75
2023/11/27 13:27:16;;;;;;;1.27;0.60;;;6.60;99.90;;;;;;4938410;29;20676;-76
2023/11/27 13:29:46;;;;;;;1.07;0.70;;;6.60;99.90;;;;;;4937350;29;20244;-75
2023/11/27 13:32:14;;;;;;;0.40;0.30;;;6.50;99.90;;;;;;4938166;29;20205;-75
2023/11/27 13:34:43;;;;;;;0.70;0.40;;;6.50;99.90;;;;;;4938132;29;20209;-76
2023/11/27 13:37:11;;;;;;;1.30;0.50;;;6.60;99.90;;;;;;4938266;29;20668;-76
2023/11/27 13:39:41;;;;;;;0.60;0.57;;;6.60;99.90;;;;;;4938321;29;20283;-75
2023/11/27 13:42:09;;;;;;;1.00;0.63;;;6.70;99.90;;;;;;4938104;29;20233;-76
2023/11/27 13:44:37;;;;;;;0.73;0.60;;;6.70;99.90;;;;;;4938384;29;20236;-75
2023/11/27 13:47:06;;;;;;;0.80;0.40;;;6.70;99.90;;;;;;4938091;29;20668;-75
2023/11/27 13:49:34;;;;;;;2.53;0.90;;;6.80;99.90;;;;;;4938213;29;20228;-75
2023/11/27 13:52:01;;;;;;;1.63;0.80;;;6.80;99.90;;;;;;4933442;29;20648;-75
2023/11/27 13:54:30;;;;;;;1.40;0.93;;;6.80;99.90;;;;;;4954628;28;20238;-74
2023/11/27 13:56:58;;;;;;;1.00;0.80;;;6.80;99.90;;;;;;4943049;28;20669;-74
2023/11/27 13:59:35;;;;;;;0.90;0.50;;;6.80;99.90;;;;;;4934612;29;20225;-75
2023/11/27 14:02:10;;;;;;;1.50;0.70;;;6.80;99.90;;;;;;4937721;29;20236;-75
2023/11/27 14:04:39;;;;;;;2.70;1.13;;;6.80;99.90;;;;;;4938199;29;20214;-75
2023/11/27 14:07:08;;;;;;;0.93;0.60;;;6.90;99.90;;;;;;4937812;29;20345;-76
2023/11/27 14:09:55;;;;;;;0.50;0.50;;;6.90;99.90;;;;;;4937769;29;20588;-76
2023/11/27 14:12:26;;;;;;;1.00;0.70;;;7.00;99.90;;;;;;4946764;29;20240;-75
2023/11/27 14:15:05;;;;;;;1.23;0.70;;;7.00;99.90;;;;;;4938210;29;20292;-75
2023/11/27 14:17:36;;;;;;;1.23;0.57;;;7.00;99.90;;;;;;4937622;29;20279;-75
2023/11/27 14:28:19;;;;;;;4.37;1.90;;;7.10;99.90;;;;;;4926550;29;20231;-75
2023/11/27 14:30:47;;;;;;;5.00;1.10;;;7.10;99.90;;;;;;4934563;29;20208;-74
2023/11/27 14:33:17;;;;;;;4.73;1.83;;;7.10;99.90;;;;;;4928623;29;20256;-74
2023/11/27 14:35:44;;;;;;;2.10;1.30;;;7.20;99.90;;;;;;4935471;29;20224;-76
2023/11/27 14:38:12;;;;;;;1.77;0.90;;;7.20;99.90;;;;;;4938981;29;20283;-74
2023/11/27 14:40:41;;;;;;;2.23;0.80;;;7.20;99.90;;;;;;4954361;28;20247;-73
2023/11/27 14:43:09;;;;;;;2.63;0.93;;;7.30;99.90;;;;;;4936657;28;20264;-74
2023/11/27 14:45:42;;;;;;;2.50;1.10;;;7.30;99.90;;;;;;4933970;29;20205;-75
2023/11/27 14:48:13;;;;;;;4.23;0.97;;;7.40;99.90;;;;;;4931887;29;20205;-74
2023/11/27 14:50:41;;;;;;;3.03;1.50;;;7.40;99.90;;;;;;4934468;29;20233;-76
2023/11/27 14:53:09;;;;;;;3.50;1.70;;;7.40;99.90;;;;;;4931506;29;20216;-77
2023/11/27 14:55:38;;;;;;;2.27;1.10;;;7.40;99.90;;;;;;4934560;29;20209;-76
2023/11/27 14:58:05;;;;;;;2.10;1.37;;;7.40;99.90;;;;;;4923375;29;20206;-77
2023/11/27 15:00:41;;;;;;;1.53;1.00;;;7.40;99.90;;;;;;4917517;29;20213;-77
2023/11/27 15:03:11;;;;;;;1.57;1.10;;;7.40;99.90;;;;;;4919599;29;20244;-79
2023/11/27 15:05:42;;;;;;;3.23;1.00;;;7.40;99.90;;;;;;4926853;29;20660;-75
2023/11/27 15:08:11;;;;;;;1.50;1.10;;;7.40;99.90;;;;;;4923553;29;20202;-78
2023/11/27 15:10:38;;;;;;;1.33;0.80;;;7.50;99.90;;;;;;4916850;29;20209;-76
2023/11/27 15:13:06;;;;;;;1.20;0.90;;;7.50;99.90;;;;;;4931786;29;20248;-75
2023/11/27 15:15:33;;;;;;;1.87;1.00;;;7.60;99.90;;;;;;4936002;29;20260;-76
2023/11/27 15:18:05;;;;;;;1.97;1.17;;;7.60;99.90;;;;;;4925114;29;20378;-76
2023/11/27 15:20:34;;;;;;;2.17;1.07;;;7.60;99.90;;;;;;4917808;29;20209;-85
2023/11/27 15:23:03;;;;;;;1.97;1.07;;;7.60;99.90;;;;;;4931240;29;20233;-77
2023/11/27 15:25:33;;;;;;;2.53;1.40;;;7.60;99.90;;;;;;4932830;29;20217;-75
2023/11/27 15:28:00;;;;;;;1.60;1.20;;;7.60;99.90;;;;;;4921775;29;20668;-76
2023/11/27 15:30:30;;;;;;;0.90;0.70;;;7.50;99.90;;;;;;4915544;29;20221;-73
2023/11/27 15:32:59;;;;;;;2.73;1.27;;;7.60;99.90;;;;;;4929447;29;20223;-77
2023/11/27 15:35:29;;;;;;;3.50;1.93;;;7.60;99.90;;;;;;4934378;29;20215;-77
2023/11/27 15:37:56;;;;;;;2.40;1.30;;;7.60;99.90;;;;;;4934845;29;20251;-77
2023/11/27 15:40:27;;;;;;;1.67;1.20;;;7.60;99.90;;;;;;4934897;29;20217;-76
2023/11/27 15:42:57;;;;;;;1.83;1.37;;;7.60;99.90;;;;;;4934169;29;20238;-76
2023/11/27 15:45:25;;;;;;;2.13;1.30;;;7.70;99.90;;;;;;4935553;29;20668;-79
2023/11/27 15:47:53;;;;;;;1.57;1.10;;;7.70;99.90;;;;;;4929036;29;20221;-76
2023/11/27 15:50:24;;;;;;;3.53;2.00;;;7.80;99.90;;;;;;4916825;29;20573;-76
2023/11/27 15:52:51;;;;;;;3.23;1.80;;;7.80;99.90;;;;;;4929617;29;20208;-74
2023/11/27 15:55:20;;;;;;;4.57;2.10;;;7.80;99.90;;;;;;4936048;29;20249;-77
2023/11/27 15:57:48;;;;;;;4.83;2.50;;;7.80;99.90;;;;;;4935014;29;20205;-75
2023/11/27 16:00:18;;;;;;;2.97;2.30;;;7.80;99.90;;;;;;4935424;29;20241;-74
2023/11/27 16:02:46;;;;;;;3.50;1.43;;;7.90;99.90;;;;;;4926584;29;20663;-74
2023/11/27 16:05:17;;;;;;;3.10;1.70;;;7.90;99.90;;;;;;4917104;29;20213;-75
2023/11/27 16:07:44;;;;;;;2.20;1.57;;;7.90;99.90;;;;;;4916338;29;20217;-75
2023/11/27 16:10:14;;;;;;;3.13;1.53;;;7.90;99.90;;;;;;4932834;29;20279;-74
2023/11/27 16:12:41;;;;;;;3.20;2.10;;;7.90;99.90;;;;;;4927548;29;20573;-77
2023/11/27 16:15:10;;;;;;;3.77;2.13;;;7.80;99.90;;;;;;4916632;29;20257;-72
2023/11/27 16:17:42;;;;;;;3.33;1.80;;;7.80;99.90;;;;;;4916350;29;20261;-75
2023/11/27 16:20:12;;;;;;;4.17;1.50;;;7.80;99.90;;;;;;4916569;29;20645;-76
2023/11/27 16:22:42;;;;;;;2.70;1.40;;;7.90;99.90;;;;;;4928064;29;20272;-75
2023/11/27 16:25:10;;;;;;;3.27;1.90;;;7.90;99.90;;;;;;4935993;29;20209;-73
2023/11/27 16:27:38;;;;;;;2.23;1.60;;;7.90;99.90;;;;;;4934850;29;20726;-75
2023/11/27 16:30:06;;;;;;;2.13;1.60;;;8.00;99.90;;;;;;4935479;29;20228;-75
2023/11/27 16:32:33;;;;;;;3.20;1.97;;;8.00;99.90;;;;;;4929813;29;20616;-75
2023/11/27 16:35:14;;;;;;;2.63;1.70;;;8.00;99.90;;;;;;4916862;29;20295;-74
2023/11/27 16:37:42;;;;;;;2.57;1.70;;;8.00;99.90;;;;;;4934746;29;20236;-74
2023/11/27 16:40:14;;;;;;;2.57;1.57;;;8.10;99.90;;;;;;4934050;29;20240;-75
2023/11/27 16:42:42;;;;;;;2.20;1.70;;;8.10;99.90;;;;;;4929187;29;20241;-76
2023/11/27 16:45:09;;;;;;;2.77;2.13;;;8.20;99.90;;;;;;4916536;29;20218;-76
2023/11/27 16:47:36;;;;;;;2.40;1.83;;;8.20;99.90;;;;;;4923168;29;20213;-76
2023/11/27 16:50:12;;;;;;;3.47;2.10;;;8.20;99.90;;;;;;4916195;29;20246;-75
2023/11/27 16:52:40;;;;;;;3.70;1.80;;;8.30;99.90;;;;;;4927736;29;20213;-76
2023/11/27 16:55:07;;;;;;;3.27;1.80;;;8.30;99.90;;;;;;4935632;29;20280;-77
2023/11/27 16:57:34;;;;;;;3.53;2.20;;;8.40;99.90;;;;;;4935075;29;20201;-75
2023/11/27 17:00:06;;;;;;;3.87;2.30;;;8.40;99.90;;;;;;4934790;29;20624;-75
2023/11/27 17:02:34;;;;;;;3.37;2.10;;;8.40;99.90;;;;;;4933037;29;20240;-75
2023/11/27 17:05:01;;;;;;;2.80;1.90;;;8.50;99.90;;;;;;4937670;29;20679;-74
2023/11/27 17:07:30;;;;;;;3.03;1.80;;;8.30;99.90;;;;;;4938370;29;20220;-78
2023/11/27 17:09:56;;;;;;;4.50;2.20;;;8.30;99.90;;;;;;4938799;29;20587;-75
2023/11/27 17:12:23;;;;;;;3.10;1.97;;;8.30;99.90;;;;;;4936605;29;20220;-75
2023/11/27 17:14:50;;;;;;;3.30;2.13;;;8.30;99.90;;;;;;4919537;29;20209;-74
2023/11/27 17:17:17;;;;;;;3.60;2.60;;;8.40;99.90;;;;;;4919637;29;20257;-74
2023/11/27 17:19:44;;;;;;;5.03;2.83;;;8.40;99.90;;;;;;4919159;29;20258;-77
2023/11/27 17:22:11;;;;;;;3.27;1.93;;;8.50;99.90;;;;;;4927315;29;20754;-74
2023/11/27 17:24:39;;;;;;;4.27;2.63;;;8.50;99.90;;;;;;4937566;29;20233;-75
2023/11/27 17:27:08;;;;;;;5.30;2.43;;;8.50;99.90;;;;;;4937914;29;20264;-76
2023/11/27 17:29:34;;;;;;;4.63;2.10;;;8.60;99.90;;;;;;4937186;29;20232;-75
2023/11/27 17:32:01;;;;;;;4.63;2.77;;;8.70;99.90;;;;;;4937537;29;20273;-75
2023/11/27 17:34:28;;;;;;;1.87;1.23;;;8.70;99.90;;;;;;4920849;29;20209;-75
2023/11/27 17:36:55;;;;;;;2.87;1.50;;;8.60;99.90;;;;;;4918864;29;20214;-73
2023/11/27 17:39:22;;;;;;;2.50;1.73;;;8.70;99.90;;;;;;4918700;29;20259;-77
2023/11/27 17:41:51;;;;;;;4.03;1.90;;;8.70;99.90;;;;;;4924559;29;20223;-75
2023/11/27 17:44:19;;;;;;;3.47;1.77;;;8.70;99.90;;;;;;4937332;29;20260;-75
2023/11/27 17:46:46;;;;;;;3.60;1.93;;;8.60;99.90;;;;;;4942987;29;20200;-75
2023/11/27 17:49:13;;;;;;;4.27;2.00;;;8.60;99.90;;;;;;4927654;29;20222;-73
2023/11/27 17:51:46;;;;;;;3.30;1.90;;;8.60;99.90;;;;;;4923035;29;20298;-74
2023/11/27 17:54:13;;;;;;;3.43;2.03;;;8.60;99.90;;;;;;4937890;29;20572;-72
2023/11/27 17:56:40;;;;;;;2.80;1.63;;;8.50;99.90;;;;;;4937780;29;20213;-73
2023/11/27 17:59:10;;;;;;;3.90;1.87;;;8.60;99.90;;;;;;4924263;29;20229;-75
2023/11/27 18:01:37;;;;;;;3.37;1.90;;;8.70;99.90;;;;;;4922106;29;20209;-73
2023/11/27 18:04:04;;;;;;;4.00;1.90;;;8.80;99.90;;;;;;4937486;29;20236;-73
2023/11/27 18:06:33;;;;;;;4.40;2.13;;;8.70;99.90;;;;;;4936920;29;20223;-73
2023/11/27 18:09:00;;;;;;;5.40;2.60;;;8.80;99.90;;;;;;4936666;29;20272;-74
2023/11/27 18:11:27;;;;;;;5.60;2.47;;;8.70;99.90;;;;;;4937324;29;20209;-75
2023/11/27 18:13:54;;;;;;;5.30;2.97;;;8.60;99.90;;;;;;4926284;29;20691;-76
2023/11/27 18:16:22;;;;;;;4.33;2.53;;;8.60;99.90;;;;;;4917567;29;20261;-74
2023/11/27 18:18:49;;;;;;;6.27;2.40;;;8.60;99.90;;;;;;4917803;29;20257;-75
2023/11/27 18:21:16;;;;;;;7.00;2.73;;;8.60;99.90;;;;;;4917801;29;20673;-74
2023/11/27 18:23:43;;;;;;;7.40;4.20;;;8.60;99.90;;;;;;4916669;29;20237;-75
2023/11/27 18:26:10;;;;;;;4.57;2.70;;;8.70;99.90;;;;;;4935136;29;20715;-75
2023/11/27 18:28:42;;;;;;;4.60;3.27;;;8.60;99.90;;;;;;4936416;29;20233;-76
2023/11/27 18:31:10;;;;;;;5.17;2.80;;;8.50;99.90;;;;;;4927361;29;20212;-77
2023/11/27 18:33:38;;;;;;;6.00;2.93;;;8.30;99.90;;;;;;4937294;29;20213;-75
2023/11/27 18:36:08;;;;;;;4.70;2.80;;;8.30;99.90;;;;;;4936943;29;20205;-75
2023/11/27 18:38:35;;;;;;;2.90;2.03;;;8.30;99.90;;;;;;4923791;29;20707;-75
2023/11/27 18:41:02;;;;;;;5.10;2.80;;;8.30;99.90;;;;;;4943583;28;20300;-75
2023/11/27 18:43:29;;;;;;;5.30;2.40;;;8.30;99.90;;;;;;4936099;29;20323;-75
2023/11/27 18:45:56;;;;;;;3.13;2.20;;;8.30;99.90;;;;;;4929718;29;20201;-75
2023/11/27 18:48:23;;;;;;;5.33;2.37;;;8.20;99.90;;;;;;4941386;29;20231;-75
2023/11/27 18:50:51;;;;;;;3.73;2.20;;;8.30;99.90;;;;;;4931410;29;20205;-75
2023/11/27 18:53:18;;;;;;;3.17;2.00;;;8.30;99.90;;;;;;4936090;29;20209;-75
2023/11/27 18:55:45;;;;;;;3.80;2.20;;;8.30;99.90;;;;;;4925494;29;20263;-75
2023/11/27 18:58:13;;;;;;;4.70;2.60;;;8.20;99.90;;;;;;4935604;29;20264;-75
2023/11/27 19:00:41;;;;;;;3.63;2.30;;;8.20;99.90;;;;;;4926965;29;20210;-75
2023/11/27 19:03:08;;;;;;;2.57;1.93;;;8.20;99.90;;;;;;4935680;29;20271;-75
2023/11/27 19:05:37;;;;;;;4.43;2.40;;;8.20;99.90;;;;;;4928665;29;20210;-75
2023/11/27 19:08:06;;;;;;;3.40;2.03;;;8.20;99.90;;;;;;4923605;29;20212;-75
2023/11/27 19:10:33;;;;;;;3.40;2.50;;;8.10;99.90;;;;;;4935127;29;20209;-75
2023/11/27 19:13:00;;;;;;;4.33;2.90;;;8.00;99.90;;;;;;4936018;29;20244;-76
2023/11/27 19:15:29;;;;;;;4.03;2.50;;;8.10;99.90;;;;;;4936163;29;20220;-75
2023/11/27 19:17:56;;;;;;;4.93;2.70;;;8.20;99.90;;;;;;4935689;29;20244;-75
2023/11/27 19:20:24;;;;;;;4.53;2.73;;;8.20;99.90;;;;;;4935742;29;20668;-76
2023/11/27 19:22:51;;;;;;;4.83;2.70;;;8.20;99.90;;;;;;4935570;29;20235;-75
2023/11/27 19:25:19;;;;;;;4.87;2.80;;;8.20;99.90;;;;;;4934724;29;20212;-75
2023/11/27 19:27:47;;;;;;;6.63;3.63;;;8.20;99.90;;;;;;4931693;29;20577;-75
2023/11/27 19:30:15;;;;;;;6.23;3.07;;;8.10;99.90;;;;;;4935115;29;20228;-76
2023/11/27 19:32:42;;;;;;;6.73;2.97;;;8.00;99.90;;;;;;4935323;29;20215;-75
2023/11/27 19:35:09;;;;;;;4.93;2.50;;;8.10;99.90;;;;;;4934820;29;20248;-75
2023/11/27 19:37:36;;;;;;;7.27;3.20;;;8.00;99.90;;;;;;4935476;29;20217;-77
2023/11/27 19:40:04;;;;;;;5.67;3.10;;;7.80;99.90;;;;;;4935021;29;20229;-76
2023/11/27 19:42:32;;;;;;;4.77;2.97;;;7.70;99.90;;;;;;4935201;29;20216;-74
2023/11/27 19:45:01;;;;;;;5.47;2.60;;;7.70;99.90;;;;;;4934756;29;20217;-74
2023/11/27 19:47:28;;;;;;;5.17;2.77;;;7.80;99.90;;;;;;4935144;29;20557;-74
2023/11/27 19:49:55;;;;;;;5.87;2.73;;;7.70;99.90;;;;;;4935316;29;20236;-74
2023/11/27 19:52:23;;;;;;;6.30;3.17;;;7.70;99.90;;;;;;4935369;29;20300;-75
2023/11/27 19:54:50;;;;;;;5.17;2.70;;;7.60;99.90;;;;;;4935180;29;20212;-75
2023/11/27 19:57:17;;;;;;;4.50;2.20;;;7.60;99.90;;;;;;4934992;29;20209;-75
2023/11/27 19:59:46;;;;;;;6.70;3.00;;;7.60;99.90;;;;;;4935106;29;20268;-75
2023/11/27 20:02:15;;;;;;;5.03;3.10;;;7.60;99.90;;;;;;4935524;29;20287;-77
2023/11/27 20:04:42;;;;;;;6.37;3.40;;;7.60;99.90;;;;;;4933974;29;20581;-75
2023/11/27 20:07:11;;;;;;;5.60;3.13;;;7.60;99.90;;;;;;4935595;29;20209;-75
2023/11/27 20:09:38;;;;;;;4.60;2.37;;;7.50;99.90;;;;;;4935151;29;20711;-75
2023/11/27 20:12:09;;;;;;;4.90;2.77;;;7.50;99.90;;;;;;4935441;29;20675;-75
2023/11/27 20:14:36;;;;;;;4.90;2.60;;;7.60;99.90;;;;;;4935377;29;20251;-75
2023/11/27 20:17:05;;;;;;;3.40;2.27;;;7.60;99.90;;;;;;4934762;29;20212;-75
2023/11/27 20:19:32;;;;;;;4.03;2.10;;;7.50;99.90;;;;;;4935023;29;20742;-74
2023/11/27 20:21:59;;;;;;;3.93;2.50;;;7.30;99.90;;;;;;4935141;29;20219;-75
2023/11/27 20:24:26;;;;;;;3.77;2.27;;;7.30;99.90;;;;;;4935209;29;20595;-74
2023/11/27 20:26:53;;;;;;;4.23;2.27;;;7.20;99.90;;;;;;4935308;29;20209;-74
2023/11/27 20:29:20;;;;;;;4.13;2.30;;;7.10;99.90;;;;;;4943318;29;20229;-77
2023/11/27 20:31:48;;;;;;;3.83;2.03;;;7.00;99.90;;;;;;4934682;29;20213;-75
2023/11/27 20:34:16;;;;;;;3.03;1.60;;;6.90;99.90;;;;;;4935175;29;20599;-74
2023/11/27 20:36:43;;;;;;;2.53;1.70;;;6.80;99.90;;;;;;4934564;29;20213;-75
2023/11/27 20:39:11;;;;;;;2.50;1.70;;;6.90;99.90;;;;;;4938361;29;20232;-76
2023/11/27 20:41:39;;;;;;;3.23;1.80;;;6.80;99.90;;;;;;4938730;29;20217;-77
2023/11/27 20:44:06;;;;;;;3.17;1.77;;;6.80;99.90;;;;;;4938759;29;20591;-77
2023/11/27 20:46:33;;;;;;;3.73;1.83;;;6.70;99.90;;;;;;4938365;29;20307;-77
2023/11/27 20:49:01;;;;;;;2.77;1.40;;;6.70;99.90;;;;;;4938416;29;20248;-74
2023/11/27 20:51:31;;;;;;;2.20;1.20;;;6.70;99.90;;;;;;4937933;29;20237;-75
2023/11/27 20:53:58;;;;;;;2.80;1.20;;;6.70;99.90;;;;;;4938544;29;20545;-75
2023/11/27 20:56:26;;;;;;;1.77;1.20;;;6.70;99.90;;;;;;4938056;29;21551;-75
2023/11/27 20:58:53;;;;;;;1.43;0.80;;;6.70;99.90;;;;;;4938570;29;20644;-74
2023/11/27 21:01:22;;;;;;;1.83;0.87;;;6.60;99.90;;;;;;4938362;29;20209;-74
2023/11/27 21:03:51;;;;;;;1.73;1.00;;;6.50;99.90;;;;;;4938424;29;20327;-74
2023/11/27 21:06:20;;;;;;;1.13;0.70;;;6.40;99.90;;;;;;4938129;29;20257;-75
2023/11/27 21:08:49;;;;;;;2.23;1.03;;;6.40;99.90;;;;;;4938097;29;20237;-75
2023/11/27 21:11:17;;;;;;;1.53;1.00;;;6.40;99.90;;;;;;4938242;29;20205;-75
2023/11/27 21:13:44;;;;;;;1.57;0.97;;;6.40;99.90;;;;;;4938080;29;20205;-75
2023/11/27 21:16:12;;;;;;;2.07;0.87;;;6.30;99.90;;;;;;4938423;29;20552;-74
2023/11/27 21:18:41;;;;;;;0.90;0.73;;;6.20;99.90;;;;;;4937893;29;20232;-74
2023/11/27 21:21:08;;;;;;;2.87;1.10;;;6.30;99.90;;;;;;4938438;29;20301;-74
2023/11/27 21:23:35;;;;;;;1.60;0.90;;;6.30;99.90;;;;;;4937830;29;20239;-74
2023/11/27 21:26:06;;;;;;;2.13;0.93;;;6.20;99.90;;;;;;4938011;29;20258;-76
2023/11/27 21:28:33;;;;;;;1.00;0.90;;;6.10;99.90;;;;;;4937366;29;20228;-77
2023/11/27 21:31:01;;;;;;;1.00;0.80;;;6.00;99.90;;;;;;4937912;29;20603;-76
2023/11/27 21:33:28;;;;;;;1.57;0.93;;;6.00;99.90;;;;;;4937695;29;20724;-77
2023/11/27 21:35:55;;;;;;;1.60;0.90;;;5.90;99.90;;;;;;4937468;29;20664;-77
2023/11/27 21:38:23;;;;;;;1.27;1.00;;;5.80;99.90;;;;;;4937788;29;20307;-76
2023/11/27 21:40:50;;;;;;;1.37;0.60;;;5.80;99.90;;;;;;4938054;29;20538;-76
2023/11/27 21:43:18;;;;;;;1.43;0.63;;;5.70;99.90;;;;;;4937460;29;20221;-76
2023/11/27 21:45:45;;;;;;;2.07;0.90;;;5.60;99.90;;;;;;4937777;29;20209;-76
2023/11/27 21:48:12;;;;;;;2.13;1.00;;;5.60;99.90;;;;;;4937432;29;20232;-76
2023/11/27 21:50:39;;;;;;;1.33;0.80;;;5.60;99.90;;;;;;4936950;29;20215;-76
2023/11/27 21:53:07;;;;;;;1.53;0.90;;;5.50;99.90;;;;;;4937452;29;20204;-76
